Monterey, Massachusetts
Current Conditions -  °F | °C
As of 6:54 PM on Wednesday 28 Jan 2015 (Local Time) from KPSF Reporting Station
Clear Clear  
Wind Chill:   Ceiling: Unl
Heat Index: 14°   Visibility: 10mi
Dew Point:   Wind: 7mph
Humidity: 56%   Direction: 300°WNW
Pressure: 30.13"   Gusts: NA
Location:  42.18°N, 73.21°W
Report Text: KPSF 282354Z AUTO 30006KT 10SM CLR M10/M17 A3013 RMK AO2 SLP231 T11001172 11067 21100 53026
Loading
Personal Weather Stations






























Interactive Weather Map New forecast layout! Learn more

10-Day Weather Forecast

Advertisements
Track Severe Weather on mobile